createdAt,value
2023-03-18T00:00:10.218Z,99520.13
2023-03-18T00:02:51.632Z,99515.06
2023-03-18T00:08:37.313Z,99525.66
2023-03-18T00:11:39.458Z,99522.69
2023-03-18T00:14:39.198Z,99530.09
2023-03-18T00:21:02.202Z,99520.97
2023-03-18T00:24:23.278Z,99524.69
2023-03-18T00:30:13.383Z,99539.78
2023-03-18T00:33:22.452Z,99538.66
2023-03-18T00:36:13.829Z,99545.53
2023-03-18T00:38:51.974Z,99530.44
2023-03-18T00:44:50.141Z,99554.06
2023-03-18T00:47:27.217Z,99552.22
2023-03-18T00:51:22.020Z,99556.38
2023-03-18T00:54:46.013Z,99557.97
2023-03-18T01:02:46.787Z,99550.41
2023-03-18T01:06:04.857Z,99544.53
2023-03-18T01:12:14.152Z,99550.16
2023-03-18T01:15:15.346Z,99549.69
2023-03-18T01:22:36.077Z,99547.97
2023-03-18T01:25:51.942Z,99547.75
2023-03-18T01:28:56.691Z,99544.31
2023-03-18T01:43:02.552Z,99548.44
2023-03-18T01:53:28.167Z,99548.44
2023-03-18T02:18:51.505Z,99539.88
2023-03-18T02:21:43.251Z,99524.78
2023-03-18T02:25:09.079Z,99523.50
2023-03-18T02:28:58.348Z,99522.94
2023-03-18T02:41:35.568Z,99531.81
2023-03-18T02:45:03.125Z,99541.13
2023-03-18T02:49:19.698Z,99553.31
2023-03-18T02:59:37.189Z,99546.44
2023-03-18T03:02:05.820Z,99552.06
2023-03-18T03:04:34.974Z,99551.00
2023-03-18T03:07:03.488Z,99551.59
2023-03-18T03:09:38.310Z,99556.31
2023-03-18T03:12:09.298Z,99547.56
2023-03-18T03:14:44.293Z,99552.13
2023-03-18T03:17:15.336Z,99551.09
2023-03-18T03:19:45.866Z,99554.56
2023-03-18T03:22:17.406Z,99551.91
2023-03-18T03:24:48.786Z,99554.56
2023-03-18T03:27:17.791Z,99556.97
2023-03-18T03:29:47.521Z,99547.41
2023-03-18T03:32:16.091Z,99564.91
2023-03-18T03:34:44.508Z,99560.41
2023-03-18T03:37:13.457Z,99565.69
2023-03-18T03:39:42.145Z,99565.94
2023-03-18T03:42:11.316Z,99563.84
2023-03-18T03:44:40.794Z,99578.72
2023-03-18T03:47:11.364Z,99569.94
2023-03-18T03:49:40.323Z,99555.91
2023-03-18T03:52:08.837Z,99562.00
2023-03-18T03:54:41.559Z,99562.50
2023-03-18T03:57:10.598Z,99571.00
2023-03-18T03:59:39.091Z,99575.50
2023-03-18T04:02:17.719Z,99589.53
2023-03-18T04:04:46.446Z,99581.03
2023-03-18T04:07:25.451Z,99572.03
2023-03-18T04:09:55.970Z,99564.31
2023-03-18T04:12:24.767Z,99573.63
2023-03-18T04:14:59.171Z,99583.44
2023-03-18T04:17:29.427Z,99586.88
2023-03-18T04:19:57.820Z,99590.31
2023-03-18T04:22:30.976Z,99588.25
2023-03-18T04:24:59.633Z,99579.50
2023-03-18T04:27:28.855Z,99580.53
2023-03-18T04:29:59.073Z,99578.72
2023-03-18T04:32:36.984Z,99583.19
2023-03-18T04:35:06.301Z,99584.81
2023-03-18T04:37:37.415Z,99578.47
2023-03-18T04:40:08.060Z,99574.44
2023-03-18T04:42:36.724Z,99581.69
2023-03-18T04:45:06.230Z,99574.22
2023-03-18T04:47:37.191Z,99569.41
2023-03-18T04:50:06.460Z,99581.91
2023-03-18T04:52:34.880Z,99578.22
2023-03-18T04:55:03.374Z,99573.97
2023-03-18T04:57:35.581Z,99564.44
2023-03-18T05:00:06.823Z,99581.91
2023-03-18T05:02:37.138Z,99578.47
2023-03-18T05:05:06.512Z,99589.06
2023-03-18T05:07:39.054Z,99586.66
2023-03-18T05:10:13.520Z,99590.91
2023-03-18T05:12:42.127Z,99589.84
2023-03-18T05:15:13.158Z,99576.06
2023-03-18T05:17:47.652Z,99589.31
2023-03-18T05:20:16.609Z,99589.78
2023-03-18T05:22:47.350Z,99601.97
2023-03-18T05:25:31.747Z,99600.34
2023-03-18T05:28:00.281Z,99597.94
2023-03-18T05:30:40.408Z,99601.63
2023-03-18T05:33:12.930Z,99607.16
2023-03-18T05:35:53.750Z,99603.41
2023-03-18T05:38:27.717Z,99599.69
2023-03-18T05:40:56.463Z,99595.44
2023-03-18T05:43:32.759Z,99589.25
2023-03-18T05:46:01.167Z,99604.88
2023-03-18T05:48:43.588Z,99609.16
2023-03-18T05:51:12.665Z,99608.56
2023-03-18T05:53:41.249Z,99608.34
2023-03-18T05:56:21.234Z,99610.16
2023-03-18T05:58:53.347Z,99607.53
2023-03-18T06:01:30.155Z,99603.28
2023-03-18T06:04:00.623Z,99605.91
2023-03-18T06:06:29.384Z,99604.53
2023-03-18T06:08:58.555Z,99609.63
2023-03-18T06:11:28.249Z,99613.31
2023-03-18T06:13:56.871Z,99614.91
2023-03-18T06:16:25.894Z,99618.59
2023-03-18T06:18:56.710Z,99613.31
2023-03-18T06:21:28.552Z,99614.56
2023-03-18T06:23:57.583Z,99613.31
2023-03-18T06:26:27.689Z,99608.47
2023-03-18T06:28:56.625Z,99618.59
2023-03-18T06:31:27.347Z,99614.09
2023-03-18T06:33:56.105Z,99617.78
2023-03-18T06:36:27.407Z,99622.06
2023-03-18T06:38:56.031Z,99621.81
2023-03-18T06:41:26.410Z,99631.34
2023-03-18T06:44:07.039Z,99630.31
2023-03-18T06:46:37.292Z,99629.28
2023-03-18T06:49:06.851Z,99627.44
2023-03-18T06:51:41.024Z,99630.06
2023-03-18T06:54:11.148Z,99629.03
2023-03-18T06:56:41.703Z,99624.56
2023-03-18T06:59:21.547Z,99622.47
2023-03-18T07:01:50.580Z,99637.31
2023-03-18T07:04:23.850Z,99638.13
2023-03-18T07:06:54.634Z,99646.63
2023-03-18T07:09:24.587Z,99631.53
2023-03-18T07:11:56.760Z,99638.44
2023-03-18T07:14:25.183Z,99641.09
2023-03-18T07:16:53.921Z,99642.47
2023-03-18T07:19:22.964Z,99645.91
2023-03-18T07:21:53.384Z,99649.13
2023-03-18T07:24:22.898Z,99656.03
2023-03-18T07:26:51.742Z,99655.81
2023-03-18T07:29:20.616Z,99654.00
2023-03-18T07:31:49.259Z,99654.00
2023-03-18T07:34:18.816Z,99651.91
2023-03-18T07:36:47.148Z,99656.72
2023-03-18T07:39:17.185Z,99663.63
2023-03-18T07:41:45.563Z,99657.88
2023-03-18T07:44:22.184Z,99666.59
2023-03-18T07:46:50.522Z,99659.56
2023-03-18T07:49:19.013Z,99660.97
2023-03-18T07:51:47.367Z,99663.34
2023-03-18T07:54:18.097Z,99665.28
2023-03-18T07:56:46.685Z,99658.47
2023-03-18T07:59:18.192Z,99651.69
2023-03-18T08:01:46.941Z,99657.84
2023-03-18T08:04:15.341Z,99651.38
2023-03-18T08:06:43.801Z,99656.53
2023-03-18T08:09:12.335Z,99655.31
2023-03-18T08:11:42.495Z,99650.66
2023-03-18T08:14:11.110Z,99645.78
2023-03-18T08:16:39.732Z,99654.47
2023-03-18T08:19:08.345Z,99657.28
2023-03-18T08:21:36.752Z,99659.25
2023-03-18T08:24:05.676Z,99650.13
2023-03-18T08:26:34.241Z,99664.09
2023-03-18T08:29:03.986Z,99660.56
2023-03-18T08:31:32.362Z,99666.81
2023-03-18T08:34:01.527Z,99664.53
2023-03-18T08:36:29.872Z,99664.44
2023-03-18T08:38:58.358Z,99653.38
2023-03-18T08:41:27.230Z,99656.38
2023-03-18T08:43:57.498Z,99658.88
2023-03-18T08:46:27.308Z,99669.84
2023-03-18T08:48:55.738Z,99665.97
2023-03-18T08:51:24.255Z,99663.09
2023-03-18T08:53:52.724Z,99670.09
2023-03-18T08:56:21.007Z,99667.28
2023-03-18T08:58:49.826Z,99657.75
2023-03-18T09:01:19.861Z,99661.00
2023-03-18T09:03:49.839Z,99652.56
2023-03-18T09:06:18.943Z,99658.75
2023-03-18T09:08:47.299Z,99662.25
2023-03-18T09:11:16.215Z,99658.31
2023-03-18T09:13:44.612Z,99649.34
2023-03-18T09:16:13.024Z,99659.78
2023-03-18T09:18:44.306Z,99653.16
2023-03-18T09:21:15.065Z,99655.84
2023-03-18T09:23:43.456Z,99657.50
2023-03-18T09:26:11.797Z,99658.34
2023-03-18T09:28:40.480Z,99654.38
2023-03-18T09:31:08.911Z,99653.09
2023-03-18T09:33:37.722Z,99648.63
2023-03-18T09:36:06.915Z,99652.91
2023-03-18T09:38:37.257Z,99638.31
2023-03-18T09:41:18.795Z,99634.09
2023-03-18T09:44:15.102Z,99626.97
2023-03-18T09:47:01.103Z,99624.31
2023-03-18T09:49:51.719Z,99633.16
2023-03-18T09:52:24.402Z,99634.75
2023-03-18T09:55:02.680Z,99639.88
2023-03-18T09:57:36.895Z,99630.06
2023-03-18T10:00:13.548Z,99636.75
2023-03-18T10:02:47.570Z,99625.06
2023-03-18T10:05:21.166Z,99631.19
2023-03-18T10:07:54.607Z,99626.72
2023-03-18T10:10:30.370Z,99623.00
2023-03-18T10:13:07.649Z,99613.97
2023-03-18T10:15:41.531Z,99624.38
2023-03-18T10:18:17.024Z,99620.69
2023-03-18T10:21:04.155Z,99618.81
2023-03-18T10:23:44.994Z,99625.81
2023-03-18T10:26:19.891Z,99621.03
2023-03-18T10:29:05.264Z,99619.94
2023-03-18T10:31:56.160Z,99617.03
2023-03-18T10:34:31.198Z,99618.38
2023-03-18T10:37:09.143Z,99612.00
2023-03-18T10:39:38.969Z,99615.19
2023-03-18T10:42:22.114Z,99612.53
2023-03-18T10:44:52.609Z,99616.00
2023-03-18T10:47:26.084Z,99605.34
2023-03-18T10:50:06.121Z,99608.81
2023-03-18T10:52:39.679Z,99599.22
2023-03-18T10:55:17.808Z,99593.84
2023-03-18T10:57:47.758Z,99605.34
2023-03-18T11:00:29.559Z,99605.88
2023-03-18T11:02:58.375Z,99607.47
2023-03-18T11:05:30.612Z,99604.84
2023-03-18T11:08:03.597Z,99610.44
2023-03-18T11:10:36.593Z,99612.00
2023-03-18T11:13:06.619Z,99600.81
2023-03-18T11:15:39.786Z,99606.41
2023-03-18T11:18:19.423Z,99612.78
2023-03-18T11:21:00.726Z,99605.03
2023-03-18T11:23:46.437Z,99607.72
2023-03-18T11:26:22.970Z,99590.63
2023-03-18T11:28:58.327Z,99596.75
2023-03-18T11:31:28.077Z,99597.00
2023-03-18T11:34:00.625Z,99593.50
2023-03-18T11:36:32.415Z,99588.69
2023-03-18T11:39:06.273Z,99589.72
2023-03-18T11:41:38.870Z,99593.19
2023-03-18T11:44:17.760Z,99592.38
2023-03-18T11:46:52.345Z,99580.34
2023-03-18T11:49:24.862Z,99574.47
2023-03-18T11:52:08.373Z,99580.84
2023-03-18T11:55:10.780Z,99581.34
2023-03-18T11:57:52.777Z,99583.75
2023-03-18T12:00:30.601Z,99584.00
2023-03-18T12:03:49.913Z,99577.03
2023-03-18T12:06:23.005Z,99573.28
2023-03-18T12:09:03.253Z,99554.81
2023-03-18T12:11:48.716Z,99566.25
2023-03-18T12:14:25.877Z,99568.91
2023-03-18T12:17:11.878Z,99560.84
2023-03-18T12:20:06.924Z,99556.84
2023-03-18T12:22:50.718Z,99556.28
2023-03-18T12:25:32.937Z,99557.03
2023-03-18T12:28:09.705Z,99549.00
2023-03-18T12:31:00.621Z,99558.06
2023-03-18T12:33:50.939Z,99555.41
2023-03-18T12:36:29.504Z,99537.22
2023-03-18T12:39:40.155Z,99547.63
2023-03-18T12:42:13.564Z,99550.53
2023-03-18T12:44:59.924Z,99547.59
2023-03-18T12:47:37.065Z,99546.75
2023-03-18T12:50:16.059Z,99545.66
2023-03-18T12:52:48.647Z,99540.84
2023-03-18T12:55:22.859Z,99540.56
2023-03-18T12:57:55.974Z,99546.97
2023-03-18T13:00:31.348Z,99542.41
2023-03-18T13:03:07.471Z,99544.00
2023-03-18T13:05:43.697Z,99550.16
2023-03-18T13:08:47.413Z,99552.03
2023-03-18T13:11:33.397Z,99546.91
2023-03-18T13:14:06.945Z,99537.53
2023-03-18T13:16:39.112Z,99532.72
2023-03-18T13:19:07.547Z,99532.16
2023-03-18T13:21:44.063Z,99536.44
2023-03-18T13:24:34.094Z,99520.38
2023-03-18T13:27:30.317Z,99528.16
2023-03-18T13:30:08.325Z,99523.59
2023-03-18T13:33:14.098Z,99525.72
2023-03-18T13:36:15.728Z,99520.13
2023-03-18T13:39:18.878Z,99528.94
2023-03-18T13:42:19.638Z,99522.72
2023-03-18T13:45:04.997Z,99519.19
2023-03-18T13:47:37.954Z,99530.97
2023-03-18T13:50:29.048Z,99520.75
2023-03-18T13:52:59.714Z,99518.84
2023-03-18T13:55:34.246Z,99516.97
2023-03-18T13:58:35.936Z,99515.09
2023-03-18T14:01:29.828Z,99509.97
2023-03-18T14:04:02.980Z,99507.78
2023-03-18T14:06:53.065Z,99502.97
2023-03-18T14:09:35.359Z,99513.38
2023-03-18T14:12:38.618Z,99508.84
2023-03-18T14:15:42.580Z,99509.63
2023-03-18T14:18:37.109Z,99507.75
2023-03-18T14:21:08.756Z,99503.13
2023-03-18T14:23:43.824Z,99500.97
2023-03-18T14:26:23.491Z,99506.03
2023-03-18T14:28:57.979Z,99506.03
2023-03-18T14:31:51.358Z,99507.66
2023-03-18T14:34:30.671Z,99497.28
2023-03-18T14:37:30.302Z,99497.75
2023-03-18T14:40:06.045Z,99492.16
2023-03-18T14:42:45.772Z,99488.44
2023-03-18T14:45:22.284Z,99492.16
2023-03-18T14:47:53.694Z,99493.72
2023-03-18T14:50:42.130Z,99493.25
2023-03-18T14:53:20.333Z,99487.06
2023-03-18T14:55:49.868Z,99491.13
2023-03-18T14:58:20.481Z,99487.34
2023-03-18T15:00:54.096Z,99494.84
2023-03-18T15:03:26.706Z,99487.66
2023-03-18T15:06:00.571Z,99494.84
2023-03-18T15:08:46.920Z,99494.84
2023-03-18T15:11:17.523Z,99476.72
2023-03-18T15:13:46.460Z,99485.53
2023-03-18T15:16:20.560Z,99484.75
2023-03-18T15:18:56.023Z,99478.88
2023-03-18T15:21:28.761Z,99481.84
2023-03-18T15:24:01.089Z,99481.00
2023-03-18T15:26:34.993Z,99475.97
2023-03-18T15:29:25.035Z,99481.59
2023-03-18T15:31:55.253Z,99489.91
2023-03-18T15:34:30.107Z,99491.78
2023-03-18T15:37:02.212Z,99478.41
2023-03-18T15:39:36.175Z,99482.16
2023-03-18T15:42:15.523Z,99485.13
2023-03-18T15:44:46.366Z,99480.56
2023-03-18T15:47:25.421Z,99478.19
2023-03-18T15:49:58.766Z,99473.13
2023-03-18T15:52:36.582Z,99468.03
2023-03-18T15:55:28.029Z,99462.19
2023-03-18T15:57:57.907Z,99470.22
2023-03-18T16:00:26.979Z,99473.44
2023-03-18T16:02:56.788Z,99471.56
2023-03-18T16:05:28.219Z,99473.72
2023-03-18T16:07:57.004Z,99476.38
2023-03-18T16:10:26.622Z,99467.88
2023-03-18T16:13:00.409Z,99462.28
2023-03-18T16:15:30.029Z,99471.63
2023-03-18T16:17:59.907Z,99469.22
2023-03-18T16:20:31.551Z,99472.19
2023-03-18T16:23:00.263Z,99462.84
2023-03-18T16:25:29.206Z,99472.75
2023-03-18T16:28:00.731Z,99473.31
2023-03-18T16:30:31.953Z,99478.97
2023-03-18T16:33:01.856Z,99469.84
2023-03-18T16:35:35.930Z,99480.03
2023-03-18T16:38:04.745Z,99475.25
2023-03-18T16:40:33.885Z,99479.03
2023-03-18T16:43:02.384Z,99478.78
2023-03-18T16:45:33.152Z,99478.53
2023-03-18T16:48:07.699Z,99495.94
2023-03-18T16:50:38.474Z,99492.53
2023-03-18T16:53:17.537Z,99485.63
2023-03-18T16:55:47.441Z,99488.06
2023-03-18T16:58:19.592Z,99498.22
2023-03-18T17:00:49.761Z,99504.13
2023-03-18T17:03:20.528Z,99504.41
2023-03-18T17:05:52.079Z,99505.50
2023-03-18T17:08:22.700Z,99507.69
2023-03-18T17:10:53.876Z,99500.78
2023-03-18T17:13:28.840Z,99498.41
2023-03-18T17:15:57.709Z,99515.00
2023-03-18T17:18:28.168Z,99519.28
2023-03-18T17:20:57.111Z,99514.50
2023-03-18T17:23:28.886Z,99515.63
2023-03-18T17:26:00.323Z,99509.50
2023-03-18T17:28:35.316Z,99538.59
2023-03-18T17:31:04.569Z,99531.13
2023-03-18T17:33:37.705Z,99531.19
2023-03-18T17:36:09.441Z,99525.59
2023-03-18T17:38:38.234Z,99529.63
2023-03-18T17:41:15.478Z,99531.50
2023-03-18T17:43:44.328Z,99528.09
2023-03-18T17:46:12.884Z,99540.34
2023-03-18T17:48:42.761Z,99542.25
2023-03-18T17:51:16.833Z,99534.25
2023-03-18T17:53:48.011Z,99536.94
2023-03-18T17:56:19.417Z,99537.75
2023-03-18T17:58:50.539Z,99540.44
2023-03-18T18:01:22.273Z,99535.94
2023-03-18T18:03:52.228Z,99537.00
2023-03-18T18:06:23.533Z,99544.75
2023-03-18T18:08:52.577Z,99539.69
2023-03-18T18:11:23.869Z,99547.44
2023-03-18T18:13:54.737Z,99544.50
2023-03-18T18:16:24.217Z,99546.88
2023-03-18T18:18:54.009Z,99550.38
2023-03-18T18:21:25.774Z,99549.31
2023-03-18T18:23:54.175Z,99541.59
2023-03-18T18:26:23.019Z,99548.53
2023-03-18T18:28:53.389Z,99552.81
2023-03-18T18:31:24.034Z,99552.78
2023-03-18T18:33:55.829Z,99548.25
2023-03-18T18:36:28.094Z,99549.88
2023-03-18T18:38:56.928Z,99554.94
2023-03-18T18:41:25.945Z,99555.75
2023-03-18T18:43:55.575Z,99559.22
2023-03-18T18:46:25.033Z,99558.13
2023-03-18T18:48:54.870Z,99565.06
2023-03-18T18:51:25.384Z,99569.31
2023-03-18T18:53:55.356Z,99567.47
2023-03-18T18:56:32.200Z,99568.78
2023-03-18T18:59:01.559Z,99564.25
2023-03-18T19:01:31.143Z,99559.19
2023-03-18T19:04:02.760Z,99569.56
2023-03-18T19:06:33.651Z,99563.94
2023-03-18T19:09:05.209Z,99564.47
2023-03-18T19:11:33.827Z,99562.31
2023-03-18T19:14:20.040Z,99572.69
2023-03-18T19:16:49.381Z,99586.28
2023-03-18T19:19:22.450Z,99576.41
2023-03-18T19:21:51.124Z,99590.25
2023-03-18T19:24:28.468Z,99585.44
2023-03-18T19:26:58.980Z,99572.91
2023-03-18T19:29:28.144Z,99583.28
2023-03-18T19:31:57.079Z,99591.53
2023-03-18T19:34:27.121Z,99587.25
2023-03-18T19:36:57.228Z,99586.16
2023-03-18T19:39:27.884Z,99590.69
2023-03-18T19:41:56.618Z,99587.22
2023-03-18T19:44:27.130Z,99587.19
2023-03-18T19:46:58.841Z,99590.13
2023-03-18T19:49:33.214Z,99582.38
2023-03-18T19:52:02.309Z,99592.22
2023-03-18T19:54:32.857Z,99593.53
2023-03-18T19:57:04.327Z,99587.66
2023-03-18T19:59:38.778Z,99584.19
2023-03-18T20:02:20.966Z,99604.69
2023-03-18T20:04:51.202Z,99599.88
2023-03-18T20:07:21.079Z,99603.03
2023-03-18T20:09:50.119Z,99602.75
2023-03-18T20:12:32.787Z,99605.91
2023-03-18T20:15:01.250Z,99602.97
2023-03-18T20:17:34.894Z,99612.81
2023-03-18T20:20:07.367Z,99608.81
2023-03-18T20:22:40.161Z,99614.38
2023-03-18T20:25:18.066Z,99622.06
2023-03-18T20:27:47.430Z,99620.47
2023-03-18T20:30:26.207Z,99612.69
2023-03-18T20:32:54.639Z,99620.41
2023-03-18T20:35:28.449Z,99615.06
2023-03-18T20:37:58.672Z,99616.13
2023-03-18T20:40:29.906Z,99629.13
2023-03-18T20:42:58.776Z,99615.56
2023-03-18T20:45:27.337Z,99620.31
2023-03-18T20:47:56.671Z,99619.22
2023-03-18T20:50:30.851Z,99621.88
2023-03-18T20:52:59.401Z,99628.25
2023-03-18T20:55:30.862Z,99620.22
2023-03-18T20:58:00.731Z,99625.25
2023-03-18T21:00:32.761Z,99631.38
2023-03-18T21:03:03.449Z,99622.28
2023-03-18T21:05:33.582Z,99634.00
2023-03-18T21:08:02.234Z,99629.19
2023-03-18T21:10:31.209Z,99633.69
2023-03-18T21:12:59.577Z,99635.25
2023-03-18T21:15:29.517Z,99635.25
2023-03-18T21:17:58.359Z,99634.97
2023-03-18T21:20:32.670Z,99627.75
2023-03-18T21:23:03.002Z,99633.31
2023-03-18T21:25:31.928Z,99640.25
2023-03-18T21:28:00.429Z,99631.72
2023-03-18T21:30:28.883Z,99630.63
2023-03-18T21:32:57.276Z,99630.06
2023-03-18T21:35:28.962Z,99636.44
2023-03-18T21:37:57.276Z,99628.72
2023-03-18T21:40:27.325Z,99643.03
2023-03-18T21:42:56.397Z,99634.25
2023-03-18T21:45:24.964Z,99640.63
2023-03-18T21:47:53.561Z,99650.97
2023-03-18T21:50:25.249Z,99646.97
2023-03-18T21:52:55.194Z,99645.63
2023-03-18T21:55:24.039Z,99649.59
2023-03-18T21:57:53.832Z,99644.75
2023-03-18T22:00:23.234Z,99645.81
2023-03-18T22:02:51.698Z,99650.03
2023-03-18T22:05:22.999Z,99658.00
2023-03-18T22:07:51.800Z,99650.25
2023-03-18T22:10:23.249Z,99655.03
2023-03-18T22:12:53.276Z,99647.78
2023-03-18T22:15:40.464Z,99634.75
2023-03-18T22:18:08.918Z,99638.69
2023-03-18T22:20:39.039Z,99638.69
2023-03-18T22:23:20.131Z,99627.78
2023-03-18T22:25:50.848Z,99637.88
2023-03-18T22:28:20.917Z,99633.84
2023-03-18T22:30:52.412Z,99628.22
2023-03-18T22:33:25.007Z,99642.31
2023-03-18T22:35:53.568Z,99637.19
2023-03-18T22:38:24.500Z,99633.72
2023-03-18T22:40:55.779Z,99637.38
2023-03-18T22:43:31.824Z,99641.66
2023-03-18T22:46:02.138Z,99643.72
2023-03-18T22:48:30.676Z,99646.88
2023-03-18T22:51:00.443Z,99647.38
2023-03-18T22:53:32.272Z,99647.09
2023-03-18T22:56:11.486Z,99663.50
2023-03-18T22:58:41.377Z,99665.84
2023-03-18T23:01:16.334Z,99678.00
2023-03-18T23:03:46.285Z,99669.47
2023-03-18T23:06:17.338Z,99663.06
2023-03-18T23:08:46.647Z,99670.72
2023-03-18T23:11:16.483Z,99672.25
2023-03-18T23:13:49.857Z,99681.50
2023-03-18T23:16:21.333Z,99671.63
2023-03-18T23:18:50.913Z,99681.66
2023-03-18T23:21:22.180Z,99689.31
2023-03-18T23:23:51.094Z,99687.13
2023-03-18T23:26:19.909Z,99674.88
2023-03-18T23:28:49.738Z,99684.91
2023-03-18T23:31:18.520Z,99683.53
2023-03-18T23:33:47.309Z,99682.19
2023-03-18T23:36:15.864Z,99680.81
2023-03-18T23:38:44.210Z,99687.66
2023-03-18T23:41:12.585Z,99686.28
2023-03-18T23:43:41.157Z,99692.91
2023-03-18T23:46:10.927Z,99686.69
2023-03-18T23:48:39.283Z,99685.31
2023-03-18T23:51:07.868Z,99682.31
2023-03-18T23:53:36.530Z,99688.34
2023-03-18T23:56:04.959Z,99688.63
2023-03-18T23:58:33.364Z,99690.38
